createdAt,value
2023-02-21T00:01:12.318Z,5.40
2023-02-21T00:04:01.343Z,5.40
2023-02-21T00:06:49.895Z,5.50
2023-02-21T00:09:38.040Z,5.50
2023-02-21T00:12:26.916Z,5.40
2023-02-21T00:15:15.664Z,5.30
2023-02-21T00:18:05.536Z,5.30
2023-02-21T00:21:12.889Z,5.30
2023-02-21T00:24:01.685Z,5.40
2023-02-21T00:26:51.079Z,5.40
2023-02-21T00:29:39.401Z,5.50
2023-02-21T00:32:28.299Z,5.50
2023-02-21T00:35:17.226Z,5.50
2023-02-21T00:38:09.288Z,5.50
2023-02-21T00:40:57.401Z,5.40
2023-02-21T00:43:49.734Z,5.30
2023-02-21T00:46:38.798Z,5.10
2023-02-21T00:49:27.453Z,5.20
2023-02-21T00:52:16.208Z,5.20
2023-02-21T00:55:04.863Z,5.20
2023-02-21T00:57:53.207Z,5.10
2023-02-21T01:00:43.909Z,5.00
2023-02-21T01:03:32.259Z,4.90
2023-02-21T01:06:20.816Z,4.90
2023-02-21T01:09:09.470Z,5.00
2023-02-21T01:11:58.122Z,5.00
2023-02-21T01:14:46.891Z,4.90
2023-02-21T01:17:36.353Z,5.00
2023-02-21T01:20:26.955Z,5.00
2023-02-21T01:23:15.813Z,5.00
2023-02-21T01:26:04.240Z,4.90
2023-02-21T01:28:52.812Z,4.80
2023-02-21T01:31:41.571Z,4.90
2023-02-21T01:34:30.431Z,4.80
2023-02-21T01:37:19.083Z,4.90
2023-02-21T01:40:07.498Z,5.00
2023-02-21T01:42:56.501Z,5.10
2023-02-21T01:46:07.918Z,5.30
2023-02-21T01:48:57.046Z,5.40
2023-02-21T01:51:48.480Z,5.40
2023-02-21T01:54:39.988Z,5.20
2023-02-21T01:57:29.049Z,5.10
2023-02-21T02:00:19.344Z,4.90
2023-02-21T02:03:11.584Z,4.90
2023-02-21T02:06:02.382Z,5.00
2023-02-21T02:08:52.164Z,5.00
2023-02-21T02:11:47.779Z,5.00
2023-02-21T02:14:28.035Z,5.00
2023-02-21T02:17:03.676Z,4.90
2023-02-21T02:20:10.264Z,4.80
2023-02-21T02:23:01.889Z,4.70
2023-02-21T02:25:45.538Z,4.70
2023-02-21T02:28:32.228Z,4.90
2023-02-21T02:31:21.682Z,4.80
2023-02-21T02:34:41.598Z,4.70
2023-02-21T02:37:20.930Z,4.70
2023-02-21T02:39:55.718Z,4.70
2023-02-21T02:42:34.427Z,4.70
2023-02-21T02:45:09.489Z,4.60
2023-02-21T02:47:43.010Z,4.60
2023-02-21T02:50:16.302Z,4.70
2023-02-21T02:52:54.164Z,4.50
2023-02-21T02:55:30.469Z,4.40
2023-02-21T02:58:02.232Z,4.40
2023-02-21T03:00:35.322Z,4.50
2023-02-21T03:03:18.083Z,4.60
2023-02-21T03:06:00.639Z,4.70
2023-02-21T03:08:35.476Z,4.80
2023-02-21T03:11:09.525Z,4.70
2023-02-21T03:13:43.748Z,4.60
2023-02-21T03:16:18.077Z,4.50
2023-02-21T03:18:52.191Z,4.30
2023-02-21T03:21:26.444Z,4.20
2023-02-21T03:24:00.251Z,4.20
2023-02-21T03:26:34.158Z,4.20
2023-02-21T03:29:05.959Z,4.30
2023-02-21T03:31:40.393Z,4.20
2023-02-21T03:34:11.460Z,4.20
2023-02-21T03:36:43.979Z,4.30
2023-02-21T03:39:14.744Z,4.40
2023-02-21T03:41:45.635Z,4.40
2023-02-21T03:44:16.780Z,4.20
2023-02-21T03:46:47.737Z,4.10
2023-02-21T03:49:18.610Z,4.10
2023-02-21T03:51:49.648Z,4.00
2023-02-21T03:54:20.608Z,3.90
2023-02-21T03:57:09.998Z,3.90
2023-02-21T03:59:40.992Z,4.00
2023-02-21T04:02:12.063Z,4.10
2023-02-21T04:04:43.261Z,4.00
2023-02-21T04:07:15.322Z,3.90
2023-02-21T04:09:46.339Z,3.90
2023-02-21T04:12:17.598Z,3.90
2023-02-21T04:14:48.640Z,4.00
2023-02-21T04:17:19.693Z,4.10
2023-02-21T04:19:50.728Z,4.20
2023-02-21T04:22:22.608Z,4.20
2023-02-21T04:24:53.892Z,4.10
2023-02-21T04:27:24.824Z,4.00
2023-02-21T04:29:56.117Z,4.00
2023-02-21T04:32:27.294Z,3.90
2023-02-21T04:34:58.342Z,3.70
2023-02-21T04:37:29.178Z,3.60
2023-02-21T04:40:00.136Z,3.70
2023-02-21T04:42:31.169Z,3.70
2023-02-21T04:45:02.280Z,3.70
2023-02-21T04:47:33.286Z,3.80
2023-02-21T04:50:04.398Z,3.80
2023-02-21T04:52:35.536Z,3.80
2023-02-21T04:55:07.226Z,3.90
2023-02-21T04:57:38.306Z,3.90
2023-02-21T05:00:12.016Z,3.80
2023-02-21T05:02:45.125Z,3.90
2023-02-21T05:05:16.371Z,3.90
2023-02-21T05:07:47.476Z,3.80
2023-02-21T05:10:19.629Z,3.70
2023-02-21T05:12:50.677Z,3.60
2023-02-21T05:15:21.910Z,3.50
2023-02-21T05:17:52.894Z,3.50
2023-02-21T05:20:24.186Z,3.50
2023-02-21T05:22:57.678Z,3.50
2023-02-21T05:25:27.788Z,3.50
2023-02-21T05:27:58.689Z,3.70
2023-02-21T05:30:29.883Z,3.70
2023-02-21T05:33:01.209Z,3.90
2023-02-21T05:35:32.434Z,3.90
2023-02-21T05:38:03.405Z,3.80
2023-02-21T05:40:34.385Z,3.70
2023-02-21T05:43:05.198Z,3.70
2023-02-21T05:45:36.045Z,3.70
2023-02-21T05:48:07.808Z,3.70
2023-02-21T05:50:39.794Z,3.80
2023-02-21T05:53:11.129Z,3.70
2023-02-21T05:55:43.373Z,3.50
2023-02-21T05:58:14.465Z,3.70
2023-02-21T06:00:45.785Z,3.80
2023-02-21T06:06:04.339Z,3.60
2023-02-21T06:08:36.600Z,3.60
2023-02-21T06:11:08.048Z,3.60
2023-02-21T06:13:39.004Z,3.60
2023-02-21T06:16:11.014Z,3.60
2023-02-21T06:18:42.130Z,3.60
2023-02-21T06:21:13.657Z,3.60
2023-02-21T06:23:47.136Z,3.50
2023-02-21T06:26:19.952Z,3.50
2023-02-21T06:28:51.345Z,3.40
2023-02-21T06:31:23.877Z,3.40
2023-02-21T06:36:33.191Z,3.30
2023-02-21T06:41:42.591Z,3.20
2023-02-21T06:44:32.035Z,3.30
2023-02-21T06:49:42.244Z,3.70
2023-02-21T06:54:53.776Z,3.50
2023-02-21T06:57:24.847Z,3.30
2023-02-21T06:59:56.024Z,3.20
2023-02-21T07:02:26.936Z,3.20
2023-02-21T07:04:58.061Z,3.30
2023-02-21T07:07:29.325Z,3.20
2023-02-21T07:10:00.229Z,3.00
2023-02-21T07:12:31.304Z,3.00
2023-02-21T07:15:02.456Z,3.00
2023-02-21T07:17:33.414Z,3.00
2023-02-21T07:20:05.370Z,2.90
2023-02-21T07:22:36.663Z,2.90
2023-02-21T07:25:08.489Z,3.20
2023-02-21T07:27:39.615Z,3.50
2023-02-21T07:30:12.802Z,3.70
2023-02-21T07:35:15.249Z,3.50
2023-02-21T07:37:46.225Z,3.20
2023-02-21T07:40:17.474Z,3.00
2023-02-21T07:42:48.929Z,2.90
2023-02-21T07:45:20.221Z,3.00
2023-02-21T07:47:51.899Z,3.00
2023-02-21T07:50:23.859Z,3.10
2023-02-21T07:52:54.949Z,3.20
2023-02-21T07:55:27.341Z,3.30
2023-02-21T07:57:58.560Z,3.40
2023-02-21T08:00:29.487Z,3.60
2023-02-21T08:03:00.403Z,3.80
2023-02-21T08:05:31.314Z,4.00
2023-02-21T08:08:02.243Z,4.10
2023-02-21T08:10:33.419Z,4.30
2023-02-21T08:13:04.774Z,4.40
2023-02-21T08:15:35.903Z,4.50
2023-02-21T08:18:06.991Z,4.70
2023-02-21T08:20:38.117Z,4.90
2023-02-21T08:23:09.207Z,5.00
2023-02-21T08:25:40.221Z,5.10
2023-02-21T08:30:41.010Z,5.30
2023-02-21T08:33:12.145Z,5.80
2023-02-21T08:35:43.200Z,5.90
2023-02-21T08:38:14.263Z,6.00
2023-02-21T08:40:45.499Z,6.00
2023-02-21T08:43:34.951Z,6.00
2023-02-21T08:46:06.738Z,6.00
2023-02-21T08:48:37.897Z,6.00
2023-02-21T08:51:09.633Z,6.10
2023-02-21T08:53:40.598Z,6.20
2023-02-21T08:56:11.584Z,6.20
2023-02-21T08:58:42.994Z,6.30
2023-02-21T09:01:14.273Z,6.40
2023-02-21T09:03:45.270Z,6.60
2023-02-21T09:06:16.661Z,6.60
2023-02-21T09:08:47.670Z,6.80
2023-02-21T09:11:18.739Z,6.80
2023-02-21T09:13:49.761Z,6.60
2023-02-21T09:16:22.947Z,6.60
2023-02-21T09:18:59.292Z,6.90
2023-02-21T09:21:30.644Z,6.90
2023-02-21T09:24:03.129Z,7.00
2023-02-21T09:26:34.301Z,7.10
2023-02-21T09:29:05.387Z,7.20
2023-02-21T09:31:36.426Z,7.20
2023-02-21T09:34:07.362Z,7.30
2023-02-21T09:36:39.501Z,7.60
2023-02-21T09:39:11.317Z,7.80
2023-02-21T09:41:43.968Z,7.70
2023-02-21T09:44:18.414Z,7.80
2023-02-21T09:46:52.427Z,8.10
2023-02-21T09:49:27.573Z,8.60
2023-02-21T09:52:00.893Z,8.80
2023-02-21T09:54:35.101Z,9.10
2023-02-21T09:57:08.884Z,9.20
2023-02-21T09:59:39.835Z,9.40
2023-02-21T10:02:20.793Z,9.50
2023-02-21T10:05:00.373Z,9.40
2023-02-21T10:07:35.785Z,9.50
2023-02-21T10:10:10.292Z,9.40
2023-02-21T10:12:44.351Z,9.50
2023-02-21T10:15:27.737Z,9.30
2023-02-21T10:18:02.487Z,9.50
2023-02-21T10:20:36.413Z,9.60
2023-02-21T10:23:13.759Z,9.80
2023-02-21T10:25:46.972Z,9.90
2023-02-21T10:28:21.592Z,9.90
2023-02-21T10:30:55.636Z,9.90
2023-02-21T10:33:26.835Z,10.30
2023-02-21T10:35:57.874Z,10.50
2023-02-21T10:38:29.556Z,10.50
2023-02-21T10:41:02.656Z,10.80
2023-02-21T10:43:37.101Z,10.70
2023-02-21T10:46:12.826Z,10.70
2023-02-21T10:48:46.617Z,11.10
2023-02-21T10:51:18.878Z,11.20
2023-02-21T10:53:50.437Z,11.40
2023-02-21T10:56:30.370Z,11.50
2023-02-21T10:59:05.616Z,11.60
2023-02-21T11:01:44.861Z,11.60
2023-02-21T11:04:30.048Z,11.60
2023-02-21T11:07:05.422Z,11.50
2023-02-21T11:09:40.618Z,11.50
2023-02-21T11:12:25.357Z,11.50
2023-02-21T11:18:06.207Z,11.90
2023-02-21T11:20:37.166Z,12.10
2023-02-21T11:23:19.704Z,12.30
2023-02-21T11:25:52.499Z,12.60
2023-02-21T11:28:25.225Z,12.50
2023-02-21T11:31:17.616Z,12.50
2023-02-21T11:33:55.225Z,12.80
2023-02-21T11:36:29.735Z,12.90
2023-02-21T11:39:06.663Z,13.10
2023-02-21T11:41:42.148Z,13.10
2023-02-21T11:47:15.861Z,13.80
2023-02-21T11:49:52.855Z,13.90
2023-02-21T11:52:27.025Z,14.10
2023-02-21T11:54:58.060Z,14.60
2023-02-21T11:57:32.150Z,14.60
2023-02-21T12:00:08.386Z,15.00
2023-02-21T12:03:09.837Z,15.10
2023-02-21T12:06:02.633Z,15.20
2023-02-21T12:08:46.940Z,15.00
2023-02-21T12:11:42.470Z,15.00
2023-02-21T12:14:36.538Z,15.10
2023-02-21T12:17:15.775Z,15.50
2023-02-21T12:20:11.801Z,15.30
2023-02-21T12:22:50.518Z,15.10
2023-02-21T12:25:25.861Z,15.50
2023-02-21T12:27:59.756Z,15.70
2023-02-21T12:30:42.881Z,15.60
2023-02-21T12:33:25.879Z,15.60
2023-02-21T12:36:25.629Z,15.60
2023-02-21T12:39:02.652Z,15.60
2023-02-21T12:41:59.455Z,15.20
2023-02-21T12:44:33.885Z,15.20
2023-02-21T12:47:07.720Z,15.50
2023-02-21T12:49:41.930Z,15.40
2023-02-21T12:52:17.232Z,15.50
2023-02-21T12:54:52.052Z,15.70
2023-02-21T12:57:25.756Z,15.90
2023-02-21T13:00:04.328Z,15.60
2023-02-21T13:02:40.389Z,15.60
2023-02-21T13:05:14.815Z,16.00
2023-02-21T13:07:49.089Z,15.70
2023-02-21T13:10:24.796Z,16.00
2023-02-21T13:12:59.368Z,16.30
2023-02-21T13:15:32.126Z,16.00
2023-02-21T13:18:06.157Z,15.90
2023-02-21T13:20:39.884Z,16.10
2023-02-21T13:24:03.118Z,16.10
2023-02-21T13:26:53.278Z,16.20
2023-02-21T13:29:27.230Z,16.20
2023-02-21T13:32:03.514Z,15.90
2023-02-21T13:34:38.596Z,15.80
2023-02-21T13:37:12.120Z,15.90
2023-02-21T13:39:46.514Z,15.40
2023-02-21T13:42:21.883Z,15.20
2023-02-21T13:44:55.609Z,15.40
2023-02-21T13:47:26.830Z,15.60
2023-02-21T13:49:58.838Z,15.70
2023-02-21T13:52:57.548Z,15.60
2023-02-21T13:55:31.597Z,15.30
2023-02-21T13:58:33.935Z,15.40
2023-02-21T14:01:40.242Z,15.40
2023-02-21T14:05:06.269Z,15.00
2023-02-21T14:10:51.931Z,15.50
2023-02-21T14:13:27.727Z,16.30
2023-02-21T14:16:03.298Z,16.40
2023-02-21T14:18:36.948Z,15.90
2023-02-21T14:21:11.191Z,15.70
2023-02-21T14:23:46.331Z,15.10
2023-02-21T14:26:37.919Z,15.10
2023-02-21T14:29:38.201Z,14.80
2023-02-21T14:32:32.236Z,14.30
2023-02-21T14:35:05.658Z,14.20
2023-02-21T14:37:40.039Z,14.00
2023-02-21T14:40:21.474Z,13.70
2023-02-21T14:43:00.802Z,13.70
2023-02-21T14:45:55.620Z,13.60
2023-02-21T14:48:55.000Z,13.90
2023-02-21T14:52:00.960Z,14.00
2023-02-21T14:55:12.041Z,14.20
2023-02-21T14:58:25.784Z,14.20
2023-02-21T15:01:03.091Z,14.20
2023-02-21T15:03:37.896Z,14.10
2023-02-21T15:06:14.136Z,14.20
2023-02-21T15:08:47.164Z,14.20
2023-02-21T15:11:28.844Z,14.10
2023-02-21T15:14:22.115Z,14.10
2023-02-21T15:16:55.533Z,13.90
2023-02-21T15:19:30.529Z,13.80
2023-02-21T15:22:22.364Z,13.60
2023-02-21T15:28:06.067Z,13.60
2023-02-21T15:30:42.141Z,13.40
2023-02-21T15:33:19.228Z,13.50
2023-02-21T15:35:53.600Z,13.50
2023-02-21T15:38:30.040Z,13.40
2023-02-21T15:41:04.867Z,13.20
2023-02-21T15:43:46.563Z,13.20
2023-02-21T15:46:21.715Z,13.10
2023-02-21T15:48:54.421Z,13.00
2023-02-21T15:51:26.195Z,12.80
2023-02-21T15:54:20.384Z,12.70
2023-02-21T15:56:52.735Z,12.70
2023-02-21T15:59:27.461Z,12.60
2023-02-21T16:02:19.494Z,12.50
2023-02-21T16:04:51.697Z,12.40
2023-02-21T16:07:26.350Z,12.30
2023-02-21T16:10:03.097Z,12.20
2023-02-21T16:12:37.807Z,12.10
2023-02-21T16:15:17.811Z,12.00
2023-02-21T16:17:50.997Z,11.90
2023-02-21T16:20:25.569Z,11.90
2023-02-21T16:26:00.482Z,11.70
2023-02-21T16:28:32.391Z,11.70
2023-02-21T16:31:05.463Z,11.50
2023-02-21T16:33:37.445Z,11.40
2023-02-21T16:36:12.200Z,11.40
2023-02-21T16:38:43.201Z,11.50
2023-02-21T16:41:17.295Z,11.40
2023-02-21T16:43:48.687Z,11.30
2023-02-21T16:46:23.993Z,11.30
2023-02-21T16:48:56.874Z,11.20
2023-02-21T16:51:29.943Z,11.10
2023-02-21T16:54:01.093Z,11.00
2023-02-21T16:56:33.504Z,10.90
2023-02-21T16:59:05.905Z,10.80
2023-02-21T17:01:37.238Z,10.70
2023-02-21T17:04:11.922Z,10.60
2023-02-21T17:06:43.050Z,10.50
2023-02-21T17:09:20.864Z,10.50
2023-02-21T17:11:51.753Z,10.30
2023-02-21T17:14:23.465Z,10.10
2023-02-21T17:16:56.362Z,9.90
2023-02-21T17:19:27.494Z,10.00
2023-02-21T17:22:00.423Z,10.00
2023-02-21T17:24:31.700Z,10.00
2023-02-21T17:27:02.648Z,9.90
2023-02-21T17:29:33.584Z,9.80
2023-02-21T17:32:06.130Z,9.80
2023-02-21T17:34:38.453Z,9.60
2023-02-21T17:37:10.591Z,9.50
2023-02-21T17:39:41.806Z,9.50
2023-02-21T17:42:13.152Z,9.40
2023-02-21T17:44:48.041Z,9.40
2023-02-21T17:47:21.065Z,9.30
2023-02-21T17:49:54.740Z,9.20
2023-02-21T17:52:44.325Z,9.20
2023-02-21T17:55:19.532Z,9.00
2023-02-21T17:57:50.559Z,9.10
2023-02-21T18:00:24.789Z,9.00
2023-02-21T18:02:56.849Z,9.00
2023-02-21T18:05:30.460Z,9.00
2023-02-21T18:08:02.460Z,9.00
2023-02-21T18:10:33.765Z,8.90
2023-02-21T18:13:04.816Z,8.90
2023-02-21T18:15:37.163Z,8.90
2023-02-21T18:18:08.451Z,8.80
2023-02-21T18:20:39.778Z,8.70
2023-02-21T18:23:11.336Z,8.70
2023-02-21T18:25:42.926Z,8.60
2023-02-21T18:28:14.479Z,8.60
2023-02-21T18:30:45.607Z,8.50
2023-02-21T18:33:16.722Z,8.40
2023-02-21T18:35:47.956Z,8.40
2023-02-21T18:38:19.191Z,8.50
2023-02-21T18:40:50.558Z,8.40
2023-02-21T18:43:24.271Z,8.20
2023-02-21T18:45:56.612Z,8.10
2023-02-21T18:48:28.298Z,8.10
2023-02-21T18:50:59.397Z,8.10
2023-02-21T18:53:30.770Z,8.10
2023-02-21T18:56:01.933Z,8.10
2023-02-21T18:58:36.792Z,8.20
2023-02-21T19:01:11.503Z,8.10
2023-02-21T19:03:41.747Z,8.00
2023-02-21T19:06:16.218Z,8.00
2023-02-21T19:08:50.519Z,8.00
2023-02-21T19:11:22.159Z,7.90
2023-02-21T19:13:53.064Z,7.90
2023-02-21T19:16:25.732Z,7.80
2023-02-21T19:18:58.303Z,7.60
2023-02-21T19:21:29.691Z,7.80
2023-02-21T19:24:02.097Z,7.70
2023-02-21T19:26:33.690Z,7.70
2023-02-21T19:29:04.745Z,7.60
2023-02-21T19:31:36.069Z,7.60
2023-02-21T19:34:12.152Z,7.70
2023-02-21T19:39:23.504Z,7.60
2023-02-21T19:41:54.463Z,7.70
2023-02-21T19:44:25.398Z,7.70
2023-02-21T19:46:58.883Z,7.60
2023-02-21T19:49:29.882Z,7.50
2023-02-21T19:52:02.045Z,7.50
2023-02-21T19:57:10.529Z,7.60
2023-02-21T19:59:41.776Z,7.60
2023-02-21T20:02:16.128Z,7.50
2023-02-21T20:04:48.557Z,7.50
2023-02-21T20:07:20.783Z,7.50
2023-02-21T20:09:51.816Z,7.40
2023-02-21T20:12:23.128Z,7.40
2023-02-21T20:14:56.236Z,7.40
2023-02-21T20:17:27.346Z,7.50
2023-02-21T20:19:58.222Z,7.60
2023-02-21T20:22:30.831Z,7.50
2023-02-21T20:25:02.231Z,7.60
2023-02-21T20:27:33.187Z,7.60
2023-02-21T20:30:05.344Z,7.50
2023-02-21T20:32:36.562Z,7.50
2023-02-21T20:35:09.743Z,7.50
2023-02-21T20:37:40.672Z,7.50
2023-02-21T20:40:14.722Z,7.40
2023-02-21T20:42:47.621Z,7.40
2023-02-21T20:45:19.581Z,7.50
2023-02-21T20:47:51.072Z,7.40
2023-02-21T20:50:24.398Z,7.40
2023-02-21T20:52:55.680Z,7.40
2023-02-21T20:55:27.213Z,7.40
2023-02-21T20:57:58.855Z,7.40
2023-02-21T21:00:30.796Z,7.40
2023-02-21T21:03:02.591Z,7.40
2023-02-21T21:05:34.049Z,7.30
2023-02-21T21:08:08.053Z,7.30
2023-02-21T21:10:39.958Z,7.20
2023-02-21T21:13:11.563Z,7.10
2023-02-21T21:15:43.981Z,7.10
2023-02-21T21:18:35.060Z,7.10
2023-02-21T21:21:06.900Z,7.10
2023-02-21T21:23:37.802Z,7.20
2023-02-21T21:26:12.348Z,7.20
2023-02-21T21:28:44.219Z,7.30
2023-02-21T21:31:16.325Z,7.20
2023-02-21T21:33:48.042Z,7.20
2023-02-21T21:36:19.367Z,7.20
2023-02-21T21:38:50.444Z,7.20
2023-02-21T21:41:22.389Z,7.20
2023-02-21T21:43:53.496Z,7.20
2023-02-21T21:46:24.503Z,7.20
2023-02-21T21:48:55.658Z,7.10
2023-02-21T21:51:31.354Z,7.10
2023-02-21T21:54:03.173Z,7.10
2023-02-21T21:56:35.931Z,6.90
2023-02-21T21:59:08.928Z,6.80
2023-02-21T22:01:41.265Z,6.60
2023-02-21T22:04:13.982Z,6.50
2023-02-21T22:06:45.562Z,6.20
2023-02-21T22:09:17.371Z,6.10
2023-02-21T22:11:50.102Z,6.20
2023-02-21T22:14:23.135Z,6.20
2023-02-21T22:16:55.648Z,6.40
2023-02-21T22:19:27.926Z,6.50
2023-02-21T22:22:00.380Z,6.60
2023-02-21T22:24:31.491Z,6.70
2023-02-21T22:27:02.618Z,6.90
2023-02-21T22:29:33.551Z,6.90
2023-02-21T22:32:04.571Z,6.70
2023-02-21T22:34:35.566Z,6.40
2023-02-21T22:37:06.488Z,6.20
2023-02-21T22:39:38.720Z,6.20
2023-02-21T22:42:09.809Z,6.20
2023-02-21T22:44:43.564Z,6.40
2023-02-21T22:47:14.708Z,6.50
2023-02-21T22:49:47.868Z,6.40
2023-02-21T22:52:18.749Z,6.20
2023-02-21T22:54:50.631Z,6.30
2023-02-21T22:57:22.115Z,6.20
2023-02-21T22:59:54.660Z,6.40
2023-02-21T23:02:26.275Z,6.50
2023-02-21T23:04:59.656Z,6.50
2023-02-21T23:07:31.878Z,6.50
2023-02-21T23:10:03.799Z,6.40
2023-02-21T23:12:34.668Z,6.60
2023-02-21T23:15:06.497Z,6.60
2023-02-21T23:17:38.262Z,6.50
2023-02-21T23:20:14.715Z,6.40
2023-02-21T23:22:48.818Z,6.40
2023-02-21T23:25:23.332Z,6.50
2023-02-21T23:27:56.492Z,6.30
2023-02-21T23:30:30.128Z,6.30
2023-02-21T23:33:01.616Z,6.20
2023-02-21T23:35:32.796Z,6.20
2023-02-21T23:38:04.556Z,6.10
2023-02-21T23:40:37.602Z,6.00
2023-02-21T23:43:10.144Z,5.90
2023-02-21T23:45:42.199Z,5.80
2023-02-21T23:48:15.810Z,5.80
2023-02-21T23:50:48.589Z,5.70
2023-02-21T23:53:22.686Z,5.70
2023-02-21T23:55:55.869Z,5.60
2023-02-21T23:58:28.298Z,5.70
